Maldives Meteorological Service

METAR

Station
VRMM
METAR VRMM 190500Z 07009KT 7000 FEW018 30/23 Q1013 NOSIG=
VRMH
METAR VRMH 190500Z 06005KT 8000 SCT018 30/23 Q1013=
VRMK
METAR VRMK 190500Z 03005KT 9000 FEW018 SCT270 30/24 Q1013=
VRMT
METAR VRMT 190500Z 07004KT 9999 FEW018TCU BKN270 30/24 Q1013=
VRMG
METAR VRMG 190500Z VRB02KT 9999 FEW018 BKN270 30/25 Q1012 NOSIG=
Last Updated : 2018-12-19 10:00:19

SPECI

Station
VRMM
VRMH
VRMK
VRMT
VRMG
Last Updated : 2018-12-19 10:00:19